Terminal Aerodrome Forecast
Issued by NWS New Orleans/Baton Rouge, LA

Home | Current Version | Previous Version | Text Only | Print | Product List | Glossary On
Versions: 1 2 3 4 5 6 7 8 9 10 11 12
388
FTUS44 KLIX 260520
TAFBTR
TAF
KBTR 260520Z 2606/2706 05003KT P6SM SKC
      TEMPO 2610/2613 4SM BR SCT008
     FM261300 00000KT P6SM FEW010 SCT030
     FM261700 09005KT P6SM BKN030 BKN070 PROB30 2618/2622 4SM TSRA
      BKN035CB
     FM270000 VRB03KT P6SM SCT200=

USA.gov is the U.S. government's official web portal to all federal, state and local government web resources and services.